Time;durP1;ratioP1;P1;durP2;ratioP2;P2;SDS_P1;SDS_P2;PMS_P1;PMS_P2;Temp;Humidity;BMP_temperature;BMP_pressure;BME280_temperature;BME280_humidity;BME280_pressure;Samples;Min_cycle;Max_cycle;Signal;HPM_P1;HPM_P2
2021/03/15 00:02:23;;;;;;;8.23;4.57;;;;;;;3.43;100.00;97669.86;3716235;78;43726;-17
2021/03/15 00:07:29;;;;;;;7.63;4.60;;;;;;;3.36;100.00;97674.88;3713814;79;43313;-18
2021/03/15 00:12:35;;;;;;;7.63;4.73;;;;;;;3.38;100.00;97669.77;3716926;78;43396;-19
2021/03/15 00:17:41;;;;;;;8.30;4.60;;;;;;;3.46;100.00;97669.09;3716677;79;43447;-19
2021/03/15 00:22:49;;;;;;;7.23;4.77;;;;;;;3.46;100.00;97665.09;3708347;78;43369;-19
2021/03/15 00:27:54;;;;;;;7.53;4.60;;;;;;;3.49;100.00;97653.33;3712622;78;43686;-18
2021/03/15 00:33:01;;;;;;;7.00;4.80;;;;;;;3.39;100.00;97645.33;3715624;78;44012;-19
2021/03/15 00:38:07;;;;;;;7.50;4.93;;;;;;;3.28;100.00;97644.92;3714190;79;44444;-19
2021/03/15 00:43:13;;;;;;;8.23;5.17;;;;;;;3.31;100.00;97639.34;3720291;78;43736;-18
2021/03/15 00:48:20;;;;;;;10.03;5.27;;;;;;;3.25;100.00;97641.19;3677832;79;43670;-19
2021/03/15 00:53:26;;;;;;;8.57;4.97;;;;;;;3.20;100.00;97635.45;3665812;79;44062;-18
2021/03/15 00:58:33;;;;;;;7.57;4.80;;;;;;;3.16;100.00;97626.89;3668406;80;43362;-19
2021/03/15 01:03:39;;;;;;;6.90;4.70;;;;;;;3.12;100.00;97628.63;3669133;79;43552;-18
2021/03/15 01:08:45;;;;;;;10.17;5.07;;;;;;;3.02;100.00;97622.75;3668022;80;43681;-18
2021/03/15 01:13:53;;;;;;;8.67;4.80;;;;;;;3.01;100.00;97626.89;3668398;80;26325;-17
2021/03/15 01:19:01;;;;;;;8.07;4.70;;;;;;;3.01;100.00;97618.41;3666562;80;26396;-18
2021/03/15 01:24:08;;;;;;;6.50;4.10;;;;;;;2.99;100.00;97616.86;3663251;79;43722;-18
2021/03/15 01:29:14;;;;;;;9.20;4.23;;;;;;;2.95;100.00;97610.97;3664786;80;43407;-18
2021/03/15 01:34:20;;;;;;;7.40;4.47;;;;;;;2.89;100.00;97602.17;3667395;80;43365;-18
2021/03/15 01:39:29;;;;;;;7.27;4.67;;;;;;;2.85;100.00;97594.95;3666786;79;44097;-37
2021/03/15 01:44:37;;;;;;;9.73;4.57;;;;;;;2.81;100.00;97594.88;3565585;82;44043;-17
2021/03/15 01:49:43;;;;;;;6.30;4.60;;;;;;;2.77;100.00;97595.61;3663878;79;43490;-17
2021/03/15 01:54:49;;;;;;;9.00;5.07;;;;;;;2.70;100.00;97584.33;3669602;80;44501;-18
2021/03/15 01:59:55;;;;;;;7.77;4.57;;;;;;;2.64;100.00;97583.05;3665118;79;43384;-19
2021/03/15 02:05:01;;;;;;;7.57;5.00;;;;;;;2.60;100.00;97578.45;3665857;80;44746;-17
2021/03/15 02:10:09;;;;;;;8.70;5.00;;;;;;;2.60;100.00;97574.95;3667099;79;44064;-18
2021/03/15 02:15:20;;;;;;;6.80;4.87;;;;;;;2.53;100.00;97568.50;3556424;83;44046;-17
2021/03/15 02:20:50;;;;;;;7.93;4.67;;;;;;;2.48;100.00;97566.20;3620579;80;43638;-18
2021/03/15 02:26:40;;;;;;;8.07;4.83;;;;;;;2.42;100.00;97556.94;3666812;80;42603;-18
2021/03/15 02:32:33;;;;;;;7.87;4.83;;;;;;;2.39;100.00;97547.06;3668935;79;44627;-17
2021/03/15 02:37:42;;;;;;;9.27;5.27;;;;;;;2.34;100.00;97550.11;3649464;80;43280;-18
2021/03/15 02:42:51;;;;;;;14.27;6.20;;;;;;;2.27;100.00;97540.99;3662746;79;44096;-21
2021/03/15 02:47:59;;;;;;;9.23;5.40;;;;;;;2.26;100.00;97536.14;3707495;78;43996;-18
2021/03/15 02:53:08;;;;;;;13.20;6.10;;;;;;;2.23;100.00;97528.92;3748840;78;44441;-17
2021/03/15 02:58:15;;;;;;;9.93;5.30;;;;;;;2.20;100.00;97531.84;3733729;78;44097;-18
2021/03/15 03:03:24;;;;;;;8.47;5.63;;;;;;;2.16;100.00;97536.58;3754836;77;43788;-18
2021/03/15 03:08:32;;;;;;;8.00;5.27;;;;;;;2.14;100.00;97535.39;3756376;77;43352;-18
2021/03/15 03:13:39;;;;;;;8.30;5.17;;;;;;;2.09;100.00;97528.78;3707546;78;43365;-17
2021/03/15 03:18:46;;;;;;;7.47;4.93;;;;;;;2.08;100.00;97529.25;3635503;80;43711;-17
2021/03/15 03:23:55;;;;;;;10.40;5.27;;;;;;;2.11;100.00;97534.81;3685907;79;43390;-17
2021/03/15 03:29:02;;;;;;;8.67;5.33;;;;;;;2.06;100.00;97527.20;3743456;78;44026;-17
2021/03/15 03:34:09;;;;;;;7.23;4.70;;;;;;;2.08;100.00;97522.61;3749616;77;44037;-17
2021/03/15 03:39:16;;;;;;;10.00;5.17;;;;;;;2.13;100.00;97521.74;3738932;78;44004;-21
2021/03/15 03:44:22;;;;;;;7.27;4.90;;;;;;;2.14;100.00;97523.44;3750922;77;44043;-18
2021/03/15 03:49:28;;;;;;;10.50;5.30;;;;;;;2.15;100.00;97521.13;3730025;78;44437;-19
2021/03/15 03:54:37;;;;;;;8.33;5.03;;;;;;;2.21;100.00;97518.44;3726215;78;43400;-18
2021/03/15 03:59:46;;;;;;;8.73;5.33;;;;;;;2.20;100.00;97518.08;3721882;79;44078;-18
2021/03/15 04:04:55;;;;;;;8.13;4.87;;;;;;;2.21;100.00;97512.27;3715892;77;44101;-18
2021/03/15 04:10:06;;;;;;;8.97;5.60;;;;;;;2.23;100.00;97512.52;3740107;79;43377;-18
2021/03/15 04:15:15;;;;;;;8.83;5.37;;;;;;;2.25;100.00;97506.55;3725729;77;44533;-18
2021/03/15 04:20:25;;;;;;;10.73;5.97;;;;;;;2.21;100.00;97497.65;3725882;77;44044;-17
2021/03/15 04:25:34;;;;;;;9.50;5.60;;;;;;;2.20;100.00;97496.83;3722454;78;44014;-18
2021/03/15 04:30:42;;;;;;;10.10;6.03;;;;;;;2.23;100.00;97498.37;3725889;78;44086;-18
2021/03/15 04:35:48;;;;;;;9.33;5.60;;;;;;;2.22;100.00;97499.34;3724334;79;44011;-18
2021/03/15 04:40:55;;;;;;;12.40;6.20;;;;;;;2.19;100.00;97497.80;3726974;77;44085;-18
2021/03/15 04:46:01;;;;;;;9.87;5.80;;;;;;;2.22;100.00;97494.02;3728355;77;44093;-18
2021/03/15 04:51:09;;;;;;;10.87;6.20;;;;;;;2.21;100.00;97483.03;3740131;77;44043;-18
2021/03/15 04:56:17;;;;;;;10.60;6.70;;;;;;;2.25;100.00;97476.49;3740388;77;43479;-16
2021/03/15 05:01:29;;;;;;;11.13;6.37;;;;;;;2.28;100.00;97465.61;3730306;78;44071;-17
2021/03/15 05:06:37;;;;;;;11.33;7.27;;;;;;;2.28;100.00;97462.95;3738616;79;44043;-16
2021/03/15 05:11:44;;;;;;;10.17;6.00;;;;;;;2.29;100.00;97461.98;3734025;77;44514;-17
2021/03/15 05:16:50;;;;;;;11.30;6.03;;;;;;;2.35;100.00;97457.45;3736758;78;43479;-16
2021/03/15 05:21:57;;;;;;;9.73;5.70;;;;;;;2.39;100.00;97457.55;3744135;77;43176;-18
2021/03/15 05:27:04;;;;;;;8.17;5.43;;;;;;;2.48;100.00;97457.70;3734155;79;43291;-16
2021/03/15 05:32:13;;;;;;;7.73;5.30;;;;;;;2.49;100.00;97462.87;3735994;78;43681;-15
2021/03/15 05:37:21;;;;;;;11.83;5.63;;;;;;;2.56;100.00;97457.87;3740893;79;43260;-16
2021/03/15 05:42:39;;;;;;;8.37;5.23;;;;;;;2.59;100.00;97453.62;3726411;77;44488;-16
2021/03/15 05:48:01;;;;;;;11.67;5.37;;;;;;;2.65;100.00;97447.74;3662278;79;42899;-15
2021/03/15 05:53:34;;;;;;;10.83;5.57;;;;;;;2.70;100.00;97444.20;3713734;78;43380;-15
2021/03/15 05:59:08;;;;;;;9.87;5.10;;;;;;;2.74;100.00;97445.63;3690871;79;43603;-15
2021/03/15 06:04:57;;;;;;;11.33;5.70;;;;;;;2.75;100.00;97435.34;3702114;78;44074;-16
2021/03/15 06:10:09;;;;;;;14.63;7.30;;;;;;;2.72;100.00;97432.09;3714901;79;43574;-16
2021/03/15 06:15:18;;;;;;;10.43;5.40;;;;;;;2.72;100.00;97432.95;3715907;78;43694;-16
2021/03/15 06:20:25;;;;;;;8.07;5.40;;;;;;;2.68;100.00;97432.03;3714906;78;44706;-18
2021/03/15 06:25:31;;;;;;;7.60;4.60;;;;;;;2.75;100.00;97430.02;3712174;78;43977;-17
2021/03/15 06:30:39;;;;;;;6.77;3.93;;;;;;;2.76;100.00;97437.00;3708974;78;44121;-16
2021/03/15 06:35:48;;;;;;;5.80;3.57;;;;;;;2.87;100.00;97430.73;3714001;79;43682;-16
2021/03/15 06:40:54;;;;;;;8.53;4.00;;;;;;;2.99;100.00;97432.80;3719980;78;43198;-17
2021/03/15 06:46:01;;;;;;;7.40;3.80;;;;;;;3.06;100.00;97429.06;3714283;77;43999;-17
2021/03/15 06:51:08;;;;;;;5.13;3.60;;;;;;;3.15;100.00;97438.05;3723913;78;43039;-17
2021/03/15 06:56:15;;;;;;;6.13;3.70;;;;;;;3.24;100.00;97434.55;3735775;77;43447;-16
2021/03/15 07:01:22;;;;;;;5.50;3.57;;;;;;;3.31;100.00;97440.16;3736568;77;43372;-17
2021/03/15 07:06:36;;;;;;;7.30;3.47;;;;;;;3.37;100.00;97439.11;3735526;77;43711;-16
2021/03/15 07:11:42;;;;;;;4.37;3.20;;;;;;;3.44;100.00;97446.55;3731251;78;43349;-16
2021/03/15 07:16:57;;;;;;;4.80;3.00;;;;;;;3.41;100.00;97437.50;3741133;77;43703;-16
2021/03/15 07:22:18;;;;;;;4.63;3.10;;;;;;;3.42;100.00;97445.84;3742730;78;43361;-17
2021/03/15 07:27:30;;;;;;;4.37;3.07;;;;;;;3.39;100.00;97452.30;3739239;79;43275;-17
2021/03/15 07:32:42;;;;;;;6.70;3.60;;;;;;;3.33;100.00;97452.84;3745539;77;44053;-16
2021/03/15 07:37:48;;;;;;;8.70;3.73;;;;;;;3.20;100.00;97453.95;3748566;77;44108;-15
2021/03/15 07:43:03;;;;;;;5.70;4.07;;;;;;;3.04;100.00;97466.47;3734059;78;43678;-16
2021/03/15 07:48:21;;;;;;;7.17;4.13;;;;;;;2.97;100.00;97460.03;3660325;79;42733;-17
2021/03/15 07:53:38;;;;;;;6.80;4.10;;;;;;;2.86;100.00;97465.46;3716018;78;44036;-17
2021/03/15 07:58:45;;;;;;;7.37;4.50;;;;;;;2.83;100.00;97463.89;3705170;77;43490;-18
2021/03/15 08:03:52;;;;;;;5.87;4.23;;;;;;;2.83;100.00;97469.21;3697553;78;43721;-17
2021/03/15 08:08:58;;;;;;;7.70;4.50;;;;;;;2.76;100.00;97460.11;3736404;79;44063;-17
2021/03/15 08:14:06;;;;;;;8.73;4.50;;;;;;;2.73;100.00;97466.55;3699620;78;43695;-16
2021/03/15 08:19:12;;;;;;;7.83;5.07;;;;;;;2.69;100.00;97460.30;3715811;79;43678;-16
2021/03/15 08:24:19;;;;;;;9.60;4.80;;;;;;;2.67;100.00;97467.07;3737835;78;43488;-16
2021/03/15 08:29:25;;;;;;;8.27;5.67;;;;;;;2.65;100.00;97466.36;3702675;78;43368;-16
2021/03/15 08:34:33;;;;;;;11.90;5.33;;;;;;;2.71;100.00;97464.51;3701237;78;43353;-17
2021/03/15 08:39:41;;;;;;;9.70;5.43;;;;;;;2.69;100.00;97466.45;3695633;79;43787;-17
2021/03/15 08:44:49;;;;;;;6.47;4.30;;;;;;;2.72;100.00;97462.20;3722772;78;44240;-18
2021/03/15 08:49:55;;;;;;;7.17;4.23;;;;;;;2.71;100.00;97464.51;3735387;77;43710;-16
2021/03/15 08:55:01;;;;;;;7.67;4.00;;;;;;;2.72;100.00;97462.67;3735453;77;44078;-17
2021/03/15 09:00:33;;;;;;;7.07;4.30;;;;;;;2.74;100.00;97460.73;3726136;77;43622;-17
2021/03/15 09:05:45;;;;;;;5.77;3.80;;;;;;;2.70;100.00;97464.15;3727348;79;43987;-18
2021/03/15 09:10:52;;;;;;;5.10;3.60;;;;;;;2.73;100.00;97466.55;3720317;77;43469;-17
2021/03/15 09:16:04;;;;;;;4.57;3.40;;;;;;;2.76;100.00;97456.12;3747052;77;44589;-17
2021/03/15 09:21:54;;;;;;;6.07;3.37;;;;;;;2.83;100.00;97455.91;3736365;77;43776;-17
2021/03/15 09:27:02;;;;;;;5.57;3.00;;;;;;;2.89;100.00;97457.19;3716301;77;43686;-18
2021/03/15 09:32:10;;;;;;;4.90;3.30;;;;;;;3.13;100.00;97451.98;3716767;78;44040;-18
2021/03/15 09:37:17;;;;;;;4.20;3.07;;;;;;;3.22;100.00;97452.00;3709426;77;43289;-18
2021/03/15 09:42:23;;;;;;;4.63;2.70;;;;;;;3.43;100.00;97439.03;3717314;77;44055;-18
2021/03/15 09:47:31;;;;;;;4.70;2.60;;;;;;;3.57;100.00;97441.78;3734557;79;42854;-19
2021/03/15 09:52:37;;;;;;;3.63;2.70;;;;;;;3.67;100.00;97443.09;3743379;78;43494;-19
2021/03/15 09:57:46;;;;;;;2.73;2.33;;;;;;;3.59;100.00;97438.46;3746361;77;26337;-18
2021/03/15 10:02:55;;;;;;;3.87;2.53;;;;;;;3.68;100.00;97443.44;3750722;78;26312;-19
2021/03/15 10:08:18;;;;;;;3.00;2.43;;;;;;;3.69;100.00;97445.98;3749702;79;26878;-17
2021/03/15 10:13:46;;;;;;;3.00;2.27;;;;;;;3.60;100.00;97452.12;3620371;81;26395;-17
2021/03/15 10:19:21;;;;;;;2.70;2.23;;;;;;;3.59;100.00;97453.11;3556372;81;26698;-18
2021/03/15 10:24:37;;;;;;;3.13;2.27;;;;;;;3.64;100.00;97464.20;3621513;81;44031;-18
2021/03/15 10:29:45;;;;;;;2.40;2.00;;;;;;;3.68;100.00;97453.62;3747997;77;43157;-18
2021/03/15 10:35:00;;;;;;;2.17;1.70;;;;;;;3.90;100.00;97462.75;3751579;78;45195;-18
2021/03/15 10:40:12;;;;;;;2.67;2.03;;;;;;;3.89;100.00;97457.93;3744010;79;26424;-17
2021/03/15 10:45:19;;;;;;;2.27;2.00;;;;;;;4.11;100.00;97462.11;3707059;78;43292;-18
2021/03/15 10:50:28;;;;;;;2.23;2.00;;;;;;;4.12;100.00;97466.93;3710692;78;27726;-19
2021/03/15 10:55:53;;;;;;;2.17;1.97;;;;;;;3.96;100.00;97464.36;3757995;79;26404;-18
2021/03/15 11:01:04;;;;;;;2.50;2.10;;;;;;;4.07;100.00;97463.84;3743807;78;27070;-18
2021/03/15 11:06:15;;;;;;;2.20;2.00;;;;;;;4.27;100.00;97460.16;3745120;77;27421;-17
2021/03/15 11:11:25;;;;;;;2.30;2.10;;;;;;;4.16;100.00;97457.67;3745016;77;26986;-17
2021/03/15 11:16:35;;;;;;;2.23;1.93;;;;;;;4.31;100.00;97461.53;3733679;77;75309;-18
2021/03/15 11:21:43;;;;;;;1.50;1.40;;;;;;;4.31;100.00;97459.38;3752071;77;43677;-18
2021/03/15 11:26:52;;;;;;;2.30;1.50;;;;;;;4.33;100.00;97458.74;3746566;77;26977;-18
2021/03/15 11:31:59;;;;;;;2.00;1.67;;;;;;;4.43;100.00;97457.35;3745230;78;27620;-19
2021/03/15 11:37:08;;;;;;;1.97;1.60;;;;;;;4.48;100.00;97455.92;3678068;79;44004;-18
2021/03/15 11:42:28;;;;;;;2.10;1.83;;;;;;;4.68;100.00;97465.67;3738474;77;26298;-19
2021/03/15 11:47:37;;;;;;;1.87;1.67;;;;;;;5.01;100.00;97462.05;3745759;77;43968;-18
2021/03/15 11:52:54;;;;;;;4.33;2.00;;;;;;;5.39;100.00;97466.80;3722208;77;26726;-19
2021/03/15 11:58:01;;;;;;;3.67;1.77;;;;;;;5.35;100.00;97464.11;3716400;78;26592;-19
2021/03/15 12:03:08;;;;;;;3.10;1.60;;;;;;;5.64;100.00;97456.34;3719548;78;44501;-27
2021/03/15 12:08:32;;;;;;;2.50;1.50;;;;;;;5.89;100.00;97460.55;3714834;78;26425;-17
2021/03/15 12:13:38;;;;;;;2.80;1.70;;;;;;;5.64;100.00;97457.67;3721367;78;44502;-17
2021/03/15 12:18:48;;;;;;;2.77;1.70;;;;;;;5.45;98.97;97452.84;3709716;79;44026;-18
2021/03/15 12:23:57;;;;;;;6.23;1.67;;;;;;;5.52;100.00;97452.56;3722176;78;26516;-17
2021/03/15 12:29:05;;;;;;;1.80;1.50;;;;;;;5.44;100.00;97455.17;3712162;78;43392;-18
2021/03/15 12:34:14;;;;;;;1.90;1.50;;;;;;;5.78;100.00;97463.81;3717669;78;26370;-18
2021/03/15 12:39:20;;;;;;;4.97;2.23;;;;;;;5.60;100.00;97454.48;3713222;78;64856;-17
2021/03/15 12:44:31;;;;;;;3.00;2.03;;;;;;;5.44;100.00;97457.84;3715669;78;26399;-17
2021/03/15 12:49:39;;;;;;;4.30;2.23;;;;;;;5.56;100.00;97457.10;3708514;79;26867;-18
2021/03/15 12:54:46;;;;;;;3.80;2.37;;;;;;;5.78;100.00;97454.46;3743050;77;26965;-17
2021/03/15 12:59:52;;;;;;;4.20;2.40;;;;;;;5.94;99.81;97464.95;3737855;78;43388;-18
2021/03/15 13:05:00;;;;;;;3.55;2.60;;;;;;;6.01;96.15;97471.37;3734555;78;73618;-17
2021/03/15 13:10:10;;;;;;;4.93;2.60;;;;;;;6.39;96.12;97460.41;3735946;79;26883;-18
2021/03/15 13:15:23;;;;;;;5.40;2.60;;;;;;;6.48;97.88;97452.27;3733772;77;67001;-18
2021/03/15 13:20:31;;;;;;;3.72;2.20;;;;;;;6.29;99.29;97460.53;3750519;78;26367;-17
2021/03/15 13:25:37;;;;;;;4.80;2.60;;;;;;;6.06;96.86;97462.36;3743458;77;43670;-17
2021/03/15 13:30:45;;;;;;;4.97;2.50;;;;;;;6.01;95.54;97464.69;3742763;78;26362;-17
2021/03/15 13:35:52;;;;;;;6.00;2.50;;;;;;;6.38;99.26;97470.28;3741689;79;69037;-18
2021/03/15 13:41:02;;;;;;;3.83;2.70;;;;;;;7.29;96.32;97462.61;3731698;78;43437;-18
2021/03/15 13:46:15;;;;;;;2.33;2.13;;;;;;;6.78;88.77;97466.12;3732347;77;26392;-17
2021/03/15 13:51:23;;;;;;;3.20;1.90;;;;;;;7.29;86.33;97462.61;3735807;78;73533;-18
2021/03/15 13:56:32;;;;;;;2.95;2.20;;;;;;;7.08;85.88;97457.20;3731232;77;26474;-19
2021/03/15 14:02:00;;;;;;;2.50;1.93;;;;;;;7.15;88.85;97468.59;3733306;78;74455;-17
2021/03/15 14:07:09;;;;;;;4.87;1.63;;;;;;;6.82;86.87;97458.59;3741214;78;26944;-18
2021/03/15 14:12:17;;;;;;;2.72;1.80;;;;;;;6.96;83.58;97461.18;3733619;76;26491;-18
2021/03/15 14:17:26;;;;;;;2.90;1.50;;;;;;;7.31;80.99;97456.59;3728732;77;26990;-19
2021/03/15 14:22:32;;;;;;;4.58;1.60;;;;;;;7.44;84.81;97449.91;3741167;78;44047;-17
2021/03/15 14:27:41;;;;;;;2.65;1.30;;;;;;;7.69;77.50;97444.91;3736050;79;73350;-17
2021/03/15 14:32:47;;;;;;;1.40;1.30;;;;;;;7.38;79.53;97442.85;3739996;77;43709;-18
2021/03/15 14:37:56;;;;;;;2.40;1.30;;;;;;;7.43;79.68;97442.88;3731482;79;26367;-17
2021/03/15 14:43:02;;;;;;;2.42;1.65;;;;;;;6.93;80.14;97453.46;3733516;78;44036;-17
2021/03/15 14:48:25;;;;;;;2.67;1.70;;;;;;;6.90;84.75;97459.13;3735225;77;73231;-17
2021/03/15 14:53:34;;;;;;;3.95;2.02;;;;;;;6.82;86.30;97454.58;3735474;78;26902;-17
2021/03/15 14:58:42;;;;;;;4.17;1.65;;;;;;;6.67;84.75;97461.56;3734701;79;26775;-17
2021/03/15 15:03:48;;;;;;;1.25;1.10;;;;;;;6.48;85.75;97464.31;3697459;78;43356;-17
2021/03/15 15:08:54;;;;;;;2.97;1.43;;;;;;;6.45;86.93;97464.63;3647961;79;43935;-24
2021/03/15 15:14:07;;;;;;;1.60;1.40;;;;;;;6.39;88.19;97479.98;3709483;79;26849;-18
2021/03/15 15:19:15;;;;;;;1.50;1.40;;;;;;;6.25;93.09;97488.07;3732848;78;26321;-18
2021/03/15 15:24:22;;;;;;;1.67;1.30;;;;;;;6.66;93.69;97490.66;3661908;79;43678;-17
2021/03/15 15:29:29;;;;;;;1.90;1.47;;;;;;;6.37;94.70;97475.77;3754194;77;43641;-18
2021/03/15 15:34:35;;;;;;;1.60;1.10;;;;;;;6.78;94.64;97455.41;3753390;77;43365;-18
2021/03/15 15:39:42;;;;;;;2.22;1.25;;;;;;;7.13;93.04;97466.56;3728951;79;44051;-18
2021/03/15 15:44:48;;;;;;;1.85;1.10;;;;;;;6.35;96.96;97469.25;3721906;79;43995;-17
2021/03/15 15:49:56;;;;;;;2.80;1.77;;;;;;;6.10;100.00;97482.46;3721763;79;43694;-19
2021/03/15 15:55:02;;;;;;;5.93;2.23;;;;;;;5.84;100.00;97478.39;3649120;80;43983;-18
2021/03/15 16:00:11;;;;;;;5.80;1.60;;;;;;;5.62;100.00;97487.23;3746456;79;43077;-18
2021/03/15 16:05:19;;;;;;;4.53;1.60;;;;;;;4.93;100.00;97511.69;3716113;78;43701;-18
2021/03/15 16:10:26;;;;;;;2.67;1.40;;;;;;;4.63;100.00;97509.66;3652741;79;44028;-18
2021/03/15 16:15:32;;;;;;;2.03;1.40;;;;;;;3.93;100.00;97524.63;3747789;77;44052;-21
2021/03/15 16:20:40;;;;;;;1.80;1.10;;;;;;;3.40;100.00;97525.87;3690081;78;44084;-20
2021/03/15 16:25:46;;;;;;;2.50;1.27;;;;;;;3.34;100.00;97539.24;3679490;79;44102;-19
2021/03/15 16:30:53;;;;;;;2.20;0.90;;;;;;;3.47;100.00;97526.98;3679210;80;43284;-20
2021/03/15 16:36:02;;;;;;;0.93;0.80;;;;;;;3.67;100.00;97532.31;3680402;80;43376;-20
2021/03/15 16:41:08;;;;;;;1.97;0.90;;;;;;;3.82;100.00;97545.58;3678478;79;43274;-21
2021/03/15 16:46:14;;;;;;;1.93;0.70;;;;;;;3.59;100.00;97544.99;3679929;80;43980;-19
2021/03/15 16:51:21;;;;;;;1.13;0.80;;;;;;;3.49;100.00;97552.13;3678632;80;43728;-20
2021/03/15 16:56:26;;;;;;;2.53;0.80;;;;;;;3.33;100.00;97549.53;3673779;79;44010;-18
2021/03/15 17:01:32;;;;;;;1.43;0.57;;;;;;;3.36;100.00;97556.40;3688671;79;44051;-18
2021/03/15 17:06:38;;;;;;;1.80;0.80;;;;;;;3.37;100.00;97564.23;3683293;79;44052;-18
2021/03/15 17:11:44;;;;;;;3.13;1.50;;;;;;;3.40;100.00;97569.80;3663768;79;44149;-20
2021/03/15 17:16:50;;;;;;;1.63;1.10;;;;;;;3.44;100.00;97571.19;3665047;79;43668;-18
2021/03/15 17:21:56;;;;;;;1.60;1.07;;;;;;;3.46;100.00;97579.06;3671048;79;44070;-20
2021/03/15 17:27:02;;;;;;;1.77;1.00;;;;;;;3.49;100.00;97586.75;3670589;80;43707;-18
2021/03/15 17:32:09;;;;;;;2.57;1.20;;;;;;;3.53;100.00;97600.16;3668190;79;43918;-19
2021/03/15 17:37:17;;;;;;;1.43;1.13;;;;;;;3.73;100.00;97621.02;3675427;80;43700;-20
2021/03/15 17:42:24;;;;;;;1.90;1.20;;;;;;;3.67;100.00;97621.08;3660818;80;44076;-20
2021/03/15 17:47:30;;;;;;;1.90;1.30;;;;;;;3.61;100.00;97618.12;3675225;80;44087;-19
2021/03/15 17:52:38;;;;;;;1.97;1.20;;;;;;;3.49;100.00;97613.38;3668897;79;44142;-20
2021/03/15 17:57:45;;;;;;;6.00;1.23;;;;;;;3.44;100.00;97626.28;3681723;79;43425;-19
2021/03/15 18:02:53;;;;;;;2.77;1.40;;;;;;;3.55;100.00;97636.82;3677307;79;44062;-19
2021/03/15 18:08:00;;;;;;;2.47;1.13;;;;;;;3.57;100.00;97634.87;3620814;81;44145;-18
2021/03/15 18:13:06;;;;;;;3.77;1.37;;;;;;;3.61;100.00;97631.44;3679663;80;44083;-18
2021/03/15 18:18:14;;;;;;;2.13;1.30;;;;;;;3.59;100.00;97638.72;3684875;79;44073;-18
2021/03/15 18:23:21;;;;;;;3.13;1.67;;;;;;;3.54;100.00;97635.12;3693366;79;44180;-19
2021/03/15 18:28:27;;;;;;;2.93;1.30;;;;;;;3.61;100.00;97642.09;3673129;80;43613;-18
2021/03/15 18:33:33;;;;;;;5.53;2.27;;;;;;;3.68;100.00;97648.07;3683909;79;43993;-18
2021/03/15 18:38:39;;;;;;;5.70;1.47;;;;;;;3.68;100.00;97655.20;3662891;80;44152;-19
2021/03/15 18:43:45;;;;;;;5.03;1.53;;;;;;;3.73;100.00;97656.98;3674456;80;44094;-19
2021/03/15 18:48:53;;;;;;;9.47;1.83;;;;;;;3.77;100.00;97658.88;3683445;79;43304;-18
2021/03/15 18:54:00;;;;;;;5.33;1.80;;;;;;;3.78;100.00;97657.89;3680220;80;44504;-18
2021/03/15 18:59:06;;;;;;;4.70;1.80;;;;;;;3.76;100.00;97679.83;3673215;79;44074;-17
2021/03/15 19:04:12;;;;;;;5.57;1.50;;;;;;;3.74;100.00;97680.45;3689614;79;42965;-19
2021/03/15 19:09:18;;;;;;;7.97;1.70;;;;;;;3.91;100.00;97691.80;3633570;81;44912;-17
2021/03/15 19:14:24;;;;;;;3.43;1.93;;;;;;;3.90;100.00;97677.25;3689003;80;43669;-17
2021/03/15 19:19:30;;;;;;;9.03;1.83;;;;;;;3.87;100.00;97687.71;3681717;79;44076;-17
2021/03/15 19:24:35;;;;;;;6.03;1.63;;;;;;;3.88;100.00;97696.06;3691161;79;43732;-18
2021/03/15 19:29:41;;;;;;;7.70;1.70;;;;;;;3.90;100.00;97700.77;3610527;81;44564;-17
2021/03/15 19:34:47;;;;;;;6.87;1.80;;;;;;;3.93;100.00;97706.30;3613766;81;44169;-17
2021/03/15 19:39:53;;;;;;;7.90;1.80;;;;;;;3.84;100.00;97699.97;3615302;81;43519;-17
2021/03/15 19:45:00;;;;;;;7.40;2.00;;;;;;;3.83;100.00;97710.27;3679216;80;42907;-19
2021/03/15 19:50:09;;;;;;;4.57;1.70;;;;;;;3.81;100.00;97724.23;3619968;81;43254;-19
2021/03/15 19:55:16;;;;;;;6.03;2.10;;;;;;;3.69;100.00;97735.00;3616692;80;44146;-20
2021/03/15 20:00:25;;;;;;;4.57;1.83;;;;;;;3.52;100.00;97736.95;3667636;79;43383;-18
2021/03/15 20:05:33;;;;;;;4.03;1.90;;;;;;;3.34;100.00;97745.58;3658796;79;44696;-18
2021/03/15 20:10:40;;;;;;;4.60;1.93;;;;;;;3.22;100.00;97745.30;3662210;79;43676;-18
2021/03/15 20:15:46;;;;;;;7.13;1.90;;;;;;;3.14;100.00;97745.95;3669526;80;44070;-18
2021/03/15 20:20:53;;;;;;;6.43;1.80;;;;;;;3.20;100.00;97751.23;3670509;80;43688;-18
2021/03/15 20:26:00;;;;;;;6.03;2.03;;;;;;;3.23;100.00;97759.80;3679398;79;43998;-18
2021/03/15 20:31:06;;;;;;;3.97;1.70;;;;;;;3.31;100.00;97780.91;3659304;80;44107;-18
2021/03/15 20:36:13;;;;;;;6.73;2.30;;;;;;;3.38;100.00;97773.60;3663060;80;44042;-18
2021/03/15 20:41:18;;;;;;;7.77;1.93;;;;;;;3.41;100.00;97783.64;3655321;79;44007;-19
2021/03/15 20:46:26;;;;;;;4.93;2.30;;;;;;;3.35;100.00;97799.15;3660396;80;44118;-18
2021/03/15 20:51:32;;;;;;;6.27;2.43;;;;;;;3.33;100.00;97797.60;3672172;80;43745;-19
2021/03/15 20:56:38;;;;;;;6.07;2.17;;;;;;;3.26;100.00;97805.77;3675712;79;44055;-18
2021/03/15 21:01:44;;;;;;;9.57;2.40;;;;;;;3.22;100.00;97807.34;3673633;80;44184;-19
2021/03/15 21:06:50;;;;;;;8.17;2.10;;;;;;;3.21;100.00;97807.48;3678152;78;43485;-21
2021/03/15 21:11:56;;;;;;;4.93;1.80;;;;;;;3.17;100.00;97812.70;3689184;79;43674;-18
2021/03/15 21:17:02;;;;;;;6.63;2.00;;;;;;;3.16;100.00;97823.85;3625085;80;44012;-18
2021/03/15 21:22:08;;;;;;;4.93;1.40;;;;;;;3.11;100.00;97825.21;3683540;79;43729;-19
2021/03/15 21:27:14;;;;;;;5.47;1.70;;;;;;;3.11;100.00;97833.20;3610085;81;44027;-19
2021/03/15 21:32:20;;;;;;;4.20;1.90;;;;;;;3.10;100.00;97834.17;3648031;81;43968;-19
2021/03/15 21:37:27;;;;;;;5.17;1.83;;;;;;;3.12;100.00;97839.71;3618271;81;44056;-20
2021/03/15 21:42:34;;;;;;;4.00;1.60;;;;;;;3.10;100.00;97846.14;3616794;80;44063;-19
2021/03/15 21:47:40;;;;;;;4.83;1.67;;;;;;;3.09;100.00;97851.94;3679959;79;44807;-19
2021/03/15 21:52:47;;;;;;;4.70;1.57;;;;;;;3.10;100.00;97848.80;3612552;81;44087;-18
2021/03/15 21:57:53;;;;;;;5.13;1.87;;;;;;;3.12;100.00;97844.20;3618327;81;43338;-18
2021/03/15 22:02:59;;;;;;;6.40;1.80;;;;;;;3.10;100.00;97851.47;3681670;79;43982;-19
2021/03/15 22:08:07;;;;;;;4.50;1.90;;;;;;;3.06;100.00;97852.19;3622025;80;43700;-18
2021/03/15 22:13:13;;;;;;;7.57;2.10;;;;;;;3.07;100.00;97859.20;3686573;79;43214;-20
2021/03/15 22:18:19;;;;;;;4.47;1.80;;;;;;;3.10;100.00;97864.77;3609662;80;42973;-21
2021/03/15 22:23:25;;;;;;;2.63;1.70;;;;;;;3.02;100.00;97866.73;3674291;80;43422;-18
2021/03/15 22:28:31;;;;;;;5.87;1.63;;;;;;;3.01;100.00;97868.53;3666011;79;44070;-18
2021/03/15 22:33:38;;;;;;;5.13;1.83;;;;;;;2.98;100.00;97865.29;3681222;80;43421;-19
2021/03/15 22:38:45;;;;;;;7.60;1.70;;;;;;;2.97;100.00;97865.79;3671077;79;43366;-18
2021/03/15 22:43:51;;;;;;;5.43;1.60;;;;;;;2.96;100.00;97870.75;3633518;80;43681;-19
2021/03/15 22:48:57;;;;;;;5.27;1.80;;;;;;;2.94;100.00;97883.33;3670057;79;43355;-19
2021/03/15 22:54:03;;;;;;;5.17;1.90;;;;;;;2.97;100.00;97884.41;3736059;78;43701;-19
2021/03/15 22:59:09;;;;;;;7.57;2.20;;;;;;;2.96;100.00;97890.70;3658960;79;42946;-18
2021/03/15 23:04:14;;;;;;;5.57;2.00;;;;;;;2.95;100.00;97894.80;3775851;77;43385;-20
2021/03/15 23:09:22;;;;;;;3.93;2.03;;;;;;;2.92;100.00;97903.42;3784857;77;43678;-19
2021/03/15 23:14:28;;;;;;;5.93;2.20;;;;;;;2.89;100.00;97907.66;3780869;77;44028;-19
2021/03/15 23:19:35;;;;;;;7.63;2.70;;;;;;;2.85;100.00;97904.87;3714836;79;43682;-19
2021/03/15 23:24:42;;;;;;;4.67;2.23;;;;;;;2.81;100.00;97907.45;3783742;76;44017;-19
2021/03/15 23:29:49;;;;;;;9.23;2.43;;;;;;;2.77;100.00;97905.50;3795891;77;43170;-19
2021/03/15 23:34:55;;;;;;;8.83;2.60;;;;;;;2.79;100.00;97918.69;3782154;77;44016;-18
2021/03/15 23:40:01;;;;;;;7.27;2.70;;;;;;;2.77;100.00;97935.26;3789231;77;44101;-18
2021/03/15 23:45:09;;;;;;;4.83;2.50;;;;;;;2.76;100.00;97937.55;3774719;77;44446;-18
2021/03/15 23:50:16;;;;;;;8.77;3.03;;;;;;;2.81;100.00;97940.70;3778598;77;44573;-20
2021/03/15 23:55:41;;;;;;;4.77;2.43;;;;;;;2.88;100.00;97952.52;3782675;77;26393;-19
